Time;durP1;ratioP1;P1;durP2;ratioP2;P2;SDS_P1;SDS_P2;PMS_P1;PMS_P2;Temp;Humidity;BMP_temperature;BMP_pressure;BME280_temperature;BME280_humidity;BME280_pressure;Samples;Min_cycle;Max_cycle;Signal;HPM_P1;HPM_P2
2022/12/15 00:41:01;;;;;;;18.50;12.13;;;-7.10;99.90;;;;;;5078161;28;20220;-58
2022/12/15 00:43:28;;;;;;;14.88;10.75;;;-7.10;99.90;;;;;;5077357;28;20675;-60
2022/12/15 00:48:41;;;;;;;17.60;11.85;;;-7.10;99.90;;;;;;5076640;28;20204;-59
2022/12/15 00:51:08;;;;;;;18.17;11.65;;;-7.10;99.90;;;;;;5077645;28;20205;-58
2022/12/15 01:21:04;;;;;;;15.20;11.00;;;-7.10;99.90;;;;;;5076949;28;20185;-59
2022/12/15 01:23:31;;;;;;;14.70;10.43;;;-7.10;99.90;;;;;;5076823;28;20200;-59
2022/12/15 01:25:58;;;;;;;18.30;12.30;;;-7.10;99.90;;;;;;5075953;28;20239;-59
2022/12/15 01:28:25;;;;;;;19.55;11.40;;;-7.10;99.90;;;;;;5076154;28;20221;-59
2022/12/15 01:30:52;;;;;;;18.33;11.35;;;-7.10;99.90;;;;;;5076155;28;20204;-58
2022/12/15 01:33:21;;;;;;;16.63;11.82;;;-7.10;99.90;;;;;;5076377;28;20208;-58
2022/12/15 01:35:55;;;;;;;19.65;11.65;;;-7.10;99.90;;;;;;5075737;28;20201;-59
2022/12/15 01:38:22;;;;;;;17.40;11.63;;;-7.10;99.90;;;;;;5075163;28;20188;-58
2022/12/15 01:40:52;;;;;;;19.83;12.30;;;-7.10;99.90;;;;;;5075797;28;20205;-58
2022/12/15 01:43:21;;;;;;;18.67;11.60;;;-7.10;99.90;;;;;;5075872;28;20197;-57
2022/12/15 01:46:05;;;;;;;15.55;11.38;;;-7.10;99.90;;;;;;5075409;28;20696;-58
2022/12/15 01:48:41;;;;;;;14.55;10.45;;;-7.10;99.90;;;;;;5075209;28;20712;-58
2022/12/15 01:51:23;;;;;;;16.88;10.75;;;-7.20;99.90;;;;;;5076037;28;20187;-59
2022/12/15 01:53:55;;;;;;;17.15;11.27;;;-7.20;99.90;;;;;;5075456;28;20265;-59
2022/12/15 01:56:24;;;;;;;18.75;11.52;;;-7.20;99.90;;;;;;5075387;28;20225;-59
2022/12/15 01:58:55;;;;;;;15.93;11.55;;;-7.20;99.90;;;;;;5075732;28;20197;-59
2022/12/15 02:01:21;;;;;;;14.18;11.10;;;-7.20;99.90;;;;;;5075720;28;20185;-58
2022/12/15 02:03:50;;;;;;;16.90;10.75;;;-7.20;99.90;;;;;;5075331;28;20669;-59
2022/12/15 02:06:20;;;;;;;16.73;10.32;;;-7.20;99.90;;;;;;5074921;28;20232;-59
2022/12/15 02:08:49;;;;;;;14.65;10.68;;;-7.20;99.90;;;;;;5075421;28;20205;-58
2022/12/15 02:11:54;;;;;;;20.50;13.10;;;-7.20;99.90;;;;;;5075368;28;20201;-60
2022/12/15 02:14:30;;;;;;;16.80;9.93;;;-7.20;99.90;;;;;;5063466;28;20680;-59
2022/12/15 02:17:08;;;;;;;12.30;10.27;;;-7.20;99.90;;;;;;5075049;28;20228;-58
2022/12/15 02:20:18;;;;;;;17.98;10.82;;;-7.20;99.90;;;;;;5074789;28;20190;-58
2022/12/15 02:23:16;;;;;;;17.55;10.88;;;-7.20;99.90;;;;;;5074901;28;20186;-59
2022/12/15 02:26:07;;;;;;;19.50;11.20;;;-7.20;99.90;;;;;;5074869;28;20278;-59
2022/12/15 02:28:51;;;;;;;15.43;8.88;;;-7.20;99.90;;;;;;5074894;28;20205;-59
2022/12/15 02:34:14;;;;;;;19.83;11.82;;;-7.10;99.90;;;;;;5074937;28;20263;-58
2022/12/15 02:36:44;;;;;;;19.00;11.20;;;-7.10;99.90;;;;;;5074504;28;20224;-58
2022/12/15 02:39:12;;;;;;;13.85;10.93;;;-7.10;99.90;;;;;;5074427;28;20217;-58
2022/12/15 02:41:41;;;;;;;19.10;10.52;;;-7.00;99.90;;;;;;5074545;28;20197;-59
2022/12/15 02:44:12;;;;;;;14.13;9.88;;;-7.10;99.90;;;;;;5074309;28;20205;-59
2022/12/15 02:46:53;;;;;;;19.83;11.38;;;-7.00;99.90;;;;;;5074072;28;20716;-59
2022/12/15 02:49:32;;;;;;;16.80;11.15;;;-7.00;99.90;;;;;;5074139;28;20224;-58
2022/12/15 02:52:10;;;;;;;14.57;9.82;;;-7.00;99.90;;;;;;5073992;28;20189;-58
2022/12/15 02:54:52;;;;;;;14.80;9.55;;;-7.00;99.90;;;;;;5074129;28;20554;-59
2022/12/15 02:57:24;;;;;;;15.82;10.90;;;-7.00;99.90;;;;;;5074021;28;20708;-58
2022/12/15 02:59:57;;;;;;;14.48;10.77;;;-6.90;99.90;;;;;;5074419;28;20187;-58
2022/12/15 03:02:29;;;;;;;16.27;9.73;;;-6.90;99.90;;;;;;5074519;28;20201;-59
2022/12/15 03:04:57;;;;;;;17.38;10.20;;;-6.90;99.90;;;;;;5075803;28;20188;-59
2022/12/15 03:07:26;;;;;;;17.15;11.05;;;-6.90;99.90;;;;;;5073727;28;20240;-58
2022/12/15 03:09:54;;;;;;;12.98;9.23;;;-6.90;99.90;;;;;;5074084;28;20217;-58
2022/12/15 03:12:20;;;;;;;17.13;9.63;;;-6.90;99.90;;;;;;5073610;28;20669;-59
2022/12/15 03:14:47;;;;;;;13.45;9.20;;;-6.80;99.90;;;;;;5073635;28;20207;-58
2022/12/15 03:17:14;;;;;;;16.73;9.73;;;-6.80;99.90;;;;;;5073611;28;20229;-59
2022/12/15 03:19:42;;;;;;;13.63;8.75;;;-6.80;99.90;;;;;;5073413;28;20284;-58
2022/12/15 03:22:09;;;;;;;20.67;10.68;;;-6.80;99.90;;;;;;5073686;28;20208;-58
2022/12/15 03:24:36;;;;;;;14.18;11.00;;;-6.80;99.90;;;;;;5073276;28;20660;-58
2022/12/15 03:27:03;;;;;;;18.90;10.38;;;-6.80;99.90;;;;;;5073245;28;20221;-58
2022/12/15 03:29:30;;;;;;;16.35;9.88;;;-6.80;99.90;;;;;;5073624;28;20228;-59
2022/12/15 03:31:57;;;;;;;23.55;11.07;;;-6.80;99.90;;;;;;5073208;28;20695;-59
2022/12/15 03:34:24;;;;;;;19.92;10.48;;;-6.70;99.90;;;;;;5073583;28;20216;-59
2022/12/15 03:36:53;;;;;;;14.80;9.02;;;-6.70;99.90;;;;;;5073573;28;20224;-58
2022/12/15 03:39:20;;;;;;;15.27;9.88;;;-6.60;99.90;;;;;;5073822;28;20718;-59
2022/12/15 03:41:46;;;;;;;17.48;9.82;;;-6.50;99.90;;;;;;5074174;28;20204;-58
2022/12/15 03:44:13;;;;;;;12.95;9.20;;;-6.40;99.90;;;;;;5073610;28;20204;-58
2022/12/15 03:46:40;;;;;;;13.50;10.05;;;-6.30;99.90;;;;;;5073348;28;20275;-58
2022/12/15 03:49:07;;;;;;;13.90;8.85;;;-6.30;99.90;;;;;;5073254;28;20224;-59
2022/12/15 03:51:33;;;;;;;15.50;10.50;;;-6.30;99.90;;;;;;5073303;28;20208;-58
2022/12/15 03:54:02;;;;;;;17.15;11.68;;;-6.30;99.90;;;;;;5073181;28;20209;-58
2022/12/15 03:56:28;;;;;;;13.30;8.82;;;-6.30;99.90;;;;;;5073308;28;20223;-59
2022/12/15 03:58:55;;;;;;;16.40;9.85;;;-6.30;99.90;;;;;;5073176;28;20207;-60
2022/12/15 04:01:27;;;;;;;14.73;8.80;;;-6.30;99.90;;;;;;5073183;28;20244;-59
2022/12/15 04:03:54;;;;;;;15.30;10.25;;;-6.40;99.90;;;;;;5073546;28;20193;-59
2022/12/15 04:06:21;;;;;;;16.65;9.80;;;-6.30;99.90;;;;;;5084808;22;20221;-61
2022/12/15 04:10:45;;;;;;;15.55;11.30;;;-6.30;99.90;;;;;;5131730;27;20547;-62
2022/12/15 04:13:12;;;;;;;11.45;9.48;;;-6.30;99.90;;;;;;5134664;27;20284;-59
2022/12/15 04:15:40;;;;;;;14.02;10.00;;;-6.20;99.90;;;;;;5134718;27;20206;-60
2022/12/15 04:18:09;;;;;;;15.00;9.80;;;-6.20;99.90;;;;;;5134117;27;20231;-62
2022/12/15 04:20:36;;;;;;;15.70;10.65;;;-6.20;99.90;;;;;;5133329;27;20195;-60
2022/12/15 04:23:06;;;;;;;15.00;8.98;;;-6.10;99.90;;;;;;5131253;27;20623;-61
2022/12/15 05:31:51;;;;;;;15.43;10.20;;;-5.80;99.90;;;;;;5099193;28;20283;-63
2022/12/15 05:34:20;;;;;;;15.18;10.77;;;-5.80;99.90;;;;;;5099859;28;20196;-62
2022/12/15 05:36:46;;;;;;;14.07;10.35;;;-5.80;99.90;;;;;;5112039;28;20561;-61
2022/12/15 05:39:14;;;;;;;17.08;11.77;;;-5.80;99.90;;;;;;5097115;28;20656;-61
2022/12/15 05:41:41;;;;;;;10.90;9.00;;;-5.80;99.90;;;;;;5098981;28;20551;-62
2022/12/15 05:44:08;;;;;;;15.93;9.23;;;-5.80;99.90;;;;;;5105435;28;20200;-61
2022/12/15 05:46:35;;;;;;;24.27;11.48;;;-5.80;99.90;;;;;;5110656;28;20219;-62
2022/12/15 05:49:04;;;;;;;14.20;10.50;;;-5.80;99.90;;;;;;5107490;28;20220;-62
2022/12/15 05:51:32;;;;;;;17.30;10.60;;;-5.70;99.90;;;;;;5104865;28;20343;-61
2022/12/15 05:53:58;;;;;;;19.52;11.98;;;-5.70;99.90;;;;;;5103146;28;20256;-62
2022/12/15 05:56:27;;;;;;;13.10;9.05;;;-5.70;99.90;;;;;;5103752;28;20221;-61
2022/12/15 05:58:55;;;;;;;14.43;9.88;;;-5.70;99.90;;;;;;5115971;28;20195;-61
2022/12/15 06:01:22;;;;;;;13.77;10.68;;;-5.70;99.90;;;;;;5106847;28;20668;-62
2022/12/15 06:03:48;;;;;;;12.50;9.98;;;-5.70;99.90;;;;;;5104829;28;20679;-61
2022/12/15 06:06:15;;;;;;;17.67;9.55;;;-5.80;99.90;;;;;;5114636;28;20200;-62
2022/12/15 06:08:44;;;;;;;14.20;9.85;;;-5.70;99.90;;;;;;5113330;28;20211;-63
2022/12/15 06:11:12;;;;;;;18.88;11.10;;;-5.70;99.90;;;;;;5093815;28;20192;-62
2022/12/15 06:13:39;;;;;;;15.48;9.80;;;-5.60;99.90;;;;;;5111504;28;20196;-61
2022/12/15 06:16:09;;;;;;;18.38;10.88;;;-5.60;99.90;;;;;;5115427;28;20218;-62
2022/12/15 06:18:38;;;;;;;12.38;10.10;;;-5.60;99.90;;;;;;5115593;28;20195;-62
2022/12/15 06:21:08;;;;;;;20.45;11.43;;;-5.50;99.90;;;;;;5113706;28;20207;-61
2022/12/15 06:23:35;;;;;;;15.45;10.30;;;-5.50;99.90;;;;;;5095372;28;20200;-61
2022/12/15 06:26:10;;;;;;;16.77;10.77;;;-5.50;99.90;;;;;;5094649;28;20668;-62
2022/12/15 06:28:37;;;;;;;16.67;11.02;;;-5.40;99.90;;;;;;5094537;28;20708;-62
2022/12/15 06:31:05;;;;;;;18.00;10.57;;;-5.40;99.90;;;;;;5094810;28;20216;-62
2022/12/15 06:33:32;;;;;;;13.80;8.88;;;-5.40;99.90;;;;;;5109022;28;20335;-62
2022/12/15 06:36:02;;;;;;;16.60;11.77;;;-5.40;99.90;;;;;;5115215;28;20214;-62
2022/12/15 06:38:29;;;;;;;16.75;10.35;;;-5.40;99.90;;;;;;5112440;28;20203;-62
2022/12/15 06:40:56;;;;;;;16.33;10.93;;;-5.40;99.90;;;;;;5110067;28;20191;-62
2022/12/15 06:43:25;;;;;;;13.75;11.38;;;-5.40;99.90;;;;;;5115632;28;20211;-62
2022/12/15 06:45:51;;;;;;;14.35;9.85;;;-5.40;99.90;;;;;;5116864;28;20206;-63
2022/12/15 06:48:19;;;;;;;12.68;10.05;;;-5.40;99.90;;;;;;5117125;27;20722;-64
2022/12/15 06:50:46;;;;;;;15.35;10.65;;;-5.40;99.90;;;;;;5115013;28;20227;-61
2022/12/15 06:53:13;;;;;;;16.48;10.25;;;-5.40;99.90;;;;;;5114826;28;20690;-63
2022/12/15 06:55:41;;;;;;;16.83;11.77;;;-5.30;99.90;;;;;;5114785;28;20206;-62
2022/12/15 06:58:08;;;;;;;12.40;9.48;;;-5.30;99.90;;;;;;5114505;28;20231;-64
2022/12/15 07:00:37;;;;;;;16.05;9.52;;;-5.30;99.90;;;;;;5115043;28;20195;-62
2022/12/15 07:03:04;;;;;;;17.10;11.75;;;-5.20;99.90;;;;;;5114324;28;20211;-63
2022/12/15 07:05:31;;;;;;;14.32;10.85;;;-5.20;99.90;;;;;;5114388;28;20200;-63
2022/12/15 07:07:58;;;;;;;15.75;10.23;;;-5.10;99.90;;;;;;5115070;28;20247;-62
2022/12/15 07:10:25;;;;;;;15.18;10.38;;;-5.10;99.90;;;;;;5114013;28;20223;-63
2022/12/15 07:12:51;;;;;;;18.13;10.73;;;-5.10;99.90;;;;;;5114518;28;20226;-62
2022/12/15 07:15:18;;;;;;;14.65;9.98;;;-5.10;99.90;;;;;;5114580;28;20211;-63
2022/12/15 07:17:46;;;;;;;18.60;11.93;;;-5.10;99.90;;;;;;5113612;28;20711;-63
2022/12/15 07:20:13;;;;;;;16.80;10.52;;;-5.10;99.90;;;;;;5114215;28;20608;-63
2022/12/15 07:22:40;;;;;;;13.90;9.30;;;-5.10;99.90;;;;;;5114994;28;20252;-63
2022/12/15 07:25:08;;;;;;;15.50;11.02;;;-5.10;99.90;;;;;;5114584;28;20196;-63
2022/12/15 07:27:35;;;;;;;20.95;11.88;;;-5.10;99.90;;;;;;5114800;28;20222;-62
2022/12/15 07:30:01;;;;;;;17.05;11.00;;;-5.00;99.90;;;;;;5114046;28;20581;-62
2022/12/15 07:32:28;;;;;;;14.88;9.85;;;-5.00;99.90;;;;;;5114357;28;20204;-63
2022/12/15 07:34:56;;;;;;;11.45;10.13;;;-5.00;99.90;;;;;;5115218;28;20204;-62
2022/12/15 07:37:23;;;;;;;15.20;10.90;;;-5.10;99.90;;;;;;5114588;28;20224;-63
2022/12/15 07:39:50;;;;;;;18.48;12.45;;;-5.00;99.90;;;;;;5114391;28;20207;-62
2022/12/15 07:42:16;;;;;;;20.55;11.45;;;-5.10;99.90;;;;;;5115736;28;20225;-63
2022/12/15 07:44:43;;;;;;;16.08;9.68;;;-5.00;99.90;;;;;;5117763;28;20204;-63
2022/12/15 07:47:10;;;;;;;17.23;10.60;;;-4.90;99.90;;;;;;5119074;28;20216;-62
2022/12/15 07:49:37;;;;;;;17.50;11.52;;;-4.90;99.90;;;;;;5122438;28;20246;-63
2022/12/15 07:52:05;;;;;;;16.02;10.23;;;-4.80;99.90;;;;;;5119827;28;20204;-63
2022/12/15 07:54:32;;;;;;;19.33;10.88;;;-4.70;99.90;;;;;;5120160;27;20196;-61
2022/12/15 07:56:59;;;;;;;16.40;12.32;;;-4.70;99.90;;;;;;5120819;28;20219;-62
2022/12/15 07:59:25;;;;;;;18.20;11.73;;;-4.70;99.90;;;;;;5117111;28;20254;-62
2022/12/15 08:01:53;;;;;;;19.25;11.15;;;-4.60;99.90;;;;;;5116964;28;20301;-63
2022/12/15 08:04:19;;;;;;;14.90;11.48;;;-4.60;99.90;;;;;;5117386;28;20278;-63
2022/12/15 08:06:46;;;;;;;14.23;9.40;;;-4.50;99.90;;;;;;5115795;28;20268;-63
2022/12/15 08:09:14;;;;;;;14.60;11.20;;;-4.40;99.90;;;;;;5119606;28;20672;-63
2022/12/15 08:11:41;;;;;;;18.52;11.88;;;-4.40;99.90;;;;;;5119043;28;20199;-63
2022/12/15 08:14:08;;;;;;;17.05;11.73;;;-4.30;99.90;;;;;;5121318;28;20204;-61
2022/12/15 08:16:35;;;;;;;13.40;10.90;;;-4.30;99.90;;;;;;5119468;28;20226;-63
2022/12/15 08:19:04;;;;;;;21.38;11.60;;;-4.30;99.90;;;;;;5118661;28;20199;-63
2022/12/15 08:21:31;;;;;;;16.38;10.98;;;-4.20;99.90;;;;;;5116218;28;20196;-62
2022/12/15 08:24:00;;;;;;;16.48;11.38;;;-4.10;99.90;;;;;;5117048;28;20688;-63
2022/12/15 08:26:28;;;;;;;16.35;11.63;;;-4.10;99.90;;;;;;5117598;28;20217;-62
2022/12/15 08:28:56;;;;;;;23.98;11.70;;;-4.00;99.90;;;;;;5120584;28;20200;-63
2022/12/15 08:31:24;;;;;;;17.70;11.70;;;-4.00;99.90;;;;;;5117431;28;20765;-63
2022/12/15 08:33:51;;;;;;;15.63;11.38;;;-3.90;99.90;;;;;;5119647;28;20199;-64
2022/12/15 08:36:20;;;;;;;14.20;10.55;;;-3.90;99.90;;;;;;5119303;28;20199;-64
2022/12/15 08:38:47;;;;;;;14.38;11.10;;;-3.80;99.90;;;;;;5117473;28;20273;-62
2022/12/15 08:41:15;;;;;;;14.25;9.80;;;-3.70;99.90;;;;;;5119447;28;20219;-63
2022/12/15 08:43:44;;;;;;;19.98;12.18;;;-3.60;99.90;;;;;;5116582;28;20205;-63
2022/12/15 08:46:11;;;;;;;17.65;10.95;;;-3.60;99.90;;;;;;5118103;28;20208;-63
2022/12/15 08:48:38;;;;;;;17.02;11.48;;;-3.50;99.90;;;;;;5115706;28;20220;-65
2022/12/15 08:51:06;;;;;;;19.63;12.52;;;-3.50;99.90;;;;;;5116218;28;20216;-63
2022/12/15 08:53:33;;;;;;;20.73;13.40;;;-3.40;99.90;;;;;;5116763;28;20241;-63
2022/12/15 08:56:03;;;;;;;17.35;11.57;;;-3.30;99.90;;;;;;5115850;28;20206;-64
2022/12/15 08:58:30;;;;;;;18.48;12.50;;;-3.20;99.90;;;;;;5120078;28;20549;-63
2022/12/15 09:01:01;;;;;;;15.88;11.73;;;-3.10;99.90;;;;;;5121002;28;20200;-63
2022/12/15 09:03:28;;;;;;;17.65;12.82;;;-3.00;99.90;;;;;;5119901;28;20195;-63
2022/12/15 09:05:56;;;;;;;16.55;12.07;;;-3.00;99.90;;;;;;5123647;28;20580;-63
2022/12/15 09:08:23;;;;;;;15.82;11.68;;;-2.90;99.90;;;;;;5117982;28;20220;-63
2022/12/15 09:10:50;;;;;;;16.65;11.93;;;-2.80;99.90;;;;;;5117154;28;20212;-63
2022/12/15 09:13:16;;;;;;;19.98;12.18;;;-2.80;99.90;;;;;;5117975;28;20200;-63
2022/12/15 09:15:44;;;;;;;18.27;11.52;;;-2.70;99.90;;;;;;5117393;28;20223;-62
2022/12/15 09:18:12;;;;;;;16.52;11.85;;;-2.60;99.90;;;;;;5116802;27;20225;-63
2022/12/15 09:20:39;;;;;;;17.45;12.85;;;-2.50;99.90;;;;;;5117192;28;20294;-62
2022/12/15 09:23:06;;;;;;;17.60;12.10;;;-2.50;99.90;;;;;;5116894;28;20201;-63
2022/12/15 09:25:33;;;;;;;20.83;13.05;;;-2.40;99.90;;;;;;5116700;28;20205;-63
2022/12/15 09:27:59;;;;;;;17.40;12.07;;;-2.30;99.90;;;;;;5117162;28;20236;-63
2022/12/15 09:30:26;;;;;;;15.90;11.50;;;-2.30;99.90;;;;;;5117335;28;20221;-63
2022/12/15 09:32:53;;;;;;;17.40;11.73;;;-2.20;99.90;;;;;;5117497;28;20659;-63
2022/12/15 09:35:21;;;;;;;18.10;12.18;;;-2.10;99.90;;;;;;5117735;28;20240;-62
2022/12/15 09:37:48;;;;;;;20.65;11.50;;;-2.00;99.90;;;;;;5117428;28;20223;-63
2022/12/15 09:40:15;;;;;;;14.93;12.05;;;-1.90;99.90;;;;;;5119246;28;20200;-63
2022/12/15 09:42:42;;;;;;;18.95;14.52;;;-1.90;99.90;;;;;;5119446;28;20219;-63
2022/12/15 09:45:17;;;;;;;20.73;12.02;;;-1.80;99.90;;;;;;5118074;28;20214;-63
2022/12/15 09:47:52;;;;;;;18.48;11.30;;;-1.70;99.90;;;;;;5116920;28;20228;-64
2022/12/15 09:50:27;;;;;;;17.73;12.18;;;-1.70;99.90;;;;;;5116148;28;20693;-63
2022/12/15 09:52:58;;;;;;;13.68;11.45;;;-1.60;99.90;;;;;;5116531;28;20226;-64
2022/12/15 09:55:26;;;;;;;16.08;11.75;;;-1.50;99.90;;;;;;5116518;28;20258;-63
2022/12/15 09:57:55;;;;;;;18.55;11.30;;;-1.40;99.90;;;;;;5116918;28;20222;-63
2022/12/15 10:00:24;;;;;;;16.27;12.13;;;-1.30;99.90;;;;;;5118979;28;20207;-64
2022/12/15 10:03:21;;;;;;;16.25;11.38;;;-1.30;99.90;;;;;;5116975;28;20199;-64
2022/12/15 10:05:58;;;;;;;15.00;11.50;;;-1.20;99.90;;;;;;5117167;28;20195;-63
2022/12/15 10:08:30;;;;;;;16.67;11.13;;;-1.10;99.90;;;;;;5116678;28;20184;-63
2022/12/15 10:11:00;;;;;;;17.73;12.57;;;-1.00;99.90;;;;;;5103135;22;20228;-62
2022/12/15 10:13:37;;;;;;;19.95;11.50;;;-0.90;99.90;;;;;;5076592;28;20200;-62
2022/12/15 10:16:13;;;;;;;19.23;12.45;;;-0.90;99.90;;;;;;5076263;28;20189;-61
2022/12/15 10:18:50;;;;;;;17.77;12.25;;;-0.90;99.90;;;;;;5076295;28;20192;-61
2022/12/15 10:21:18;;;;;;;19.02;12.70;;;-0.80;99.90;;;;;;5076241;28;20224;-60
2022/12/15 10:23:45;;;;;;;19.83;13.02;;;-0.70;99.90;;;;;;5075865;28;20258;-61
2022/12/15 10:26:19;;;;;;;15.50;11.52;;;-0.60;99.90;;;;;;5076012;28;20205;-60
2022/12/15 10:29:13;;;;;;;18.60;12.60;;;-0.60;99.90;;;;;;5077168;28;20184;-61
2022/12/15 10:31:50;;;;;;;18.90;11.25;;;-0.50;99.90;;;;;;5076583;28;20216;-60
2022/12/15 10:34:25;;;;;;;17.92;11.45;;;-0.40;99.90;;;;;;5076483;28;20196;-60
2022/12/15 10:36:54;;;;;;;13.90;11.23;;;-0.30;99.90;;;;;;5076524;28;20192;-61
2022/12/15 10:39:22;;;;;;;14.85;11.20;;;-0.20;99.90;;;;;;5075927;28;20350;-59
2022/12/15 10:42:11;;;;;;;14.38;10.82;;;-0.20;99.90;;;;;;5075799;28;20204;-61
2022/12/15 10:44:40;;;;;;;15.45;11.63;;;-0.10;99.90;;;;;;5075720;28;20254;-61
2022/12/15 10:47:10;;;;;;;17.05;12.82;;;-0.10;99.90;;;;;;5075874;28;20208;-61
2022/12/15 10:49:37;;;;;;;17.42;12.27;;;0.00;99.90;;;;;;5075701;28;20228;-61
2022/12/15 10:52:14;;;;;;;15.10;10.70;;;0.10;99.90;;;;;;5075026;28;20262;-61
2022/12/15 10:54:45;;;;;;;21.05;11.00;;;0.10;99.90;;;;;;5078791;28;20189;-61
2022/12/15 10:57:17;;;;;;;14.77;11.73;;;0.20;99.90;;;;;;5075916;28;20246;-61
2022/12/15 10:59:44;;;;;;;17.67;11.60;;;0.30;99.90;;;;;;5076427;28;20232;-62
2022/12/15 11:02:31;;;;;;;15.35;11.90;;;0.30;99.90;;;;;;5075446;28;20736;-62
2022/12/15 11:05:00;;;;;;;15.75;11.00;;;0.40;99.90;;;;;;5075226;28;20193;-61
2022/12/15 11:07:37;;;;;;;16.48;11.38;;;0.40;99.90;;;;;;5074972;28;20209;-61
2022/12/15 11:10:15;;;;;;;15.25;10.93;;;0.50;99.90;;;;;;5075529;28;20316;-62
2022/12/15 11:12:51;;;;;;;13.65;10.52;;;0.60;99.90;;;;;;5075979;28;20184;-61
2022/12/15 11:15:37;;;;;;;17.77;11.20;;;0.60;99.90;;;;;;5076658;28;20181;-62
2022/12/15 11:18:11;;;;;;;17.13;10.82;;;0.70;99.90;;;;;;5076313;28;20553;-62
2022/12/15 11:20:43;;;;;;;16.00;11.27;;;0.80;99.90;;;;;;5075488;28;20223;-62
2022/12/15 11:23:19;;;;;;;14.43;10.55;;;0.80;99.90;;;;;;5075976;28;20193;-61
2022/12/15 11:25:50;;;;;;;18.33;13.07;;;0.80;99.90;;;;;;5075765;28;20195;-62
2022/12/15 11:28:20;;;;;;;15.45;11.77;;;0.90;99.90;;;;;;5075281;28;20192;-61
2022/12/15 11:30:53;;;;;;;17.98;11.90;;;0.90;99.90;;;;;;5074820;28;20319;-61
2022/12/15 11:33:20;;;;;;;13.20;10.02;;;0.90;99.90;;;;;;5075553;28;20191;-61
2022/12/15 11:35:58;;;;;;;14.52;11.60;;;0.90;99.90;;;;;;5074659;28;20213;-62
2022/12/15 11:38:34;;;;;;;16.95;11.88;;;0.90;99.90;;;;;;5075054;28;20197;-62
2022/12/15 11:41:11;;;;;;;18.23;10.90;;;1.00;99.90;;;;;;5073809;28;20571;-62
2022/12/15 11:43:56;;;;;;;18.48;11.15;;;1.00;99.90;;;;;;5073979;28;20181;-63
2022/12/15 11:46:26;;;;;;;14.50;11.15;;;1.10;99.90;;;;;;5074371;28;20198;-64
2022/12/15 11:49:14;;;;;;;17.10;10.05;;;1.10;99.90;;;;;;5074265;28;20205;-61
2022/12/15 11:51:45;;;;;;;13.38;10.80;;;1.10;99.90;;;;;;5072773;28;20249;-62
2022/12/15 11:54:24;;;;;;;17.95;11.40;;;1.10;99.90;;;;;;5074142;28;20222;-62
2022/12/15 11:56:58;;;;;;;14.43;11.15;;;1.20;99.90;;;;;;5073698;28;20191;-61
2022/12/15 11:59:38;;;;;;;15.00;11.52;;;1.20;99.90;;;;;;5073404;28;20570;-62
2022/12/15 12:02:29;;;;;;;16.05;11.77;;;1.20;99.90;;;;;;5073281;28;20181;-62
2022/12/15 12:05:14;;;;;;;15.70;12.73;;;1.20;99.90;;;;;;5075158;28;20219;-62
2022/12/15 12:07:45;;;;;;;19.55;12.20;;;1.20;99.90;;;;;;5075737;28;20189;-62
2022/12/15 12:10:27;;;;;;;16.73;12.55;;;1.20;99.90;;;;;;5077073;28;20229;-62
2022/12/15 12:13:02;;;;;;;15.50;11.38;;;1.20;99.90;;;;;;5074832;28;20189;-62
2022/12/15 12:15:35;;;;;;;14.85;10.77;;;1.20;99.90;;;;;;5076263;28;20610;-62
2022/12/15 12:18:09;;;;;;;14.07;10.70;;;1.20;99.90;;;;;;5076486;28;20193;-61
2022/12/15 12:20:43;;;;;;;11.50;9.65;;;1.20;99.90;;;;;;5076474;28;20224;-61
2022/12/15 12:23:16;;;;;;;14.05;11.05;;;1.30;99.90;;;;;;5074889;28;20567;-62
2022/12/15 12:25:51;;;;;;;18.05;12.05;;;1.30;99.90;;;;;;5076628;28;20198;-62
2022/12/15 12:28:22;;;;;;;14.20;11.60;;;1.30;99.90;;;;;;5076107;28;20184;-63
2022/12/15 12:30:50;;;;;;;18.40;11.90;;;1.30;99.90;;;;;;5076924;28;20232;-61
2022/12/15 12:33:30;;;;;;;14.60;10.77;;;1.30;99.90;;;;;;5078384;28;20667;-61
2022/12/15 12:36:00;;;;;;;15.57;11.05;;;1.30;99.90;;;;;;5079072;28;20195;-61
2022/12/15 12:38:35;;;;;;;13.52;10.45;;;1.30;99.90;;;;;;5079070;28;20192;-62
2022/12/15 12:41:08;;;;;;;14.68;11.05;;;1.20;99.90;;;;;;5080779;28;20224;-60
2022/12/15 12:43:38;;;;;;;14.00;11.40;;;1.20;99.90;;;;;;5087165;28;20190;-62
2022/12/15 12:46:12;;;;;;;17.13;11.43;;;1.20;99.90;;;;;;5083855;28;20306;-61
2022/12/15 12:48:45;;;;;;;14.13;11.00;;;1.20;99.90;;;;;;5083295;28;20557;-62
2022/12/15 12:51:20;;;;;;;15.20;10.63;;;1.20;99.90;;;;;;5081288;28;20225;-62
2022/12/15 12:53:46;;;;;;;13.65;10.65;;;1.30;99.90;;;;;;5079170;28;20185;-61
2022/12/15 12:56:32;;;;;;;15.93;11.27;;;1.20;99.90;;;;;;5080042;28;20220;-61
2022/12/15 12:58:58;;;;;;;16.00;10.57;;;1.20;99.90;;;;;;5077983;28;20193;-62
2022/12/15 13:01:29;;;;;;;15.90;11.60;;;1.20;99.90;;;;;;5079001;28;20295;-61
2022/12/15 13:04:11;;;;;;;18.13;11.23;;;1.20;99.90;;;;;;5079221;28;20191;-62
2022/12/15 13:06:57;;;;;;;18.65;12.38;;;1.30;99.90;;;;;;5078931;28;20185;-61
2022/12/15 13:09:25;;;;;;;17.38;11.88;;;1.40;99.90;;;;;;5080383;28;20241;-62
2022/12/15 13:12:00;;;;;;;14.57;10.82;;;1.40;99.90;;;;;;5082484;28;20212;-62
2022/12/15 13:14:47;;;;;;;15.18;10.73;;;1.40;99.90;;;;;;5079812;28;20186;-62
2022/12/15 13:17:28;;;;;;;12.10;10.82;;;1.40;99.80;;;;;;5079017;28;20290;-61
2022/12/15 13:20:19;;;;;;;17.67;10.82;;;1.30;99.70;;;;;;5081355;28;20255;-62
2022/12/15 13:22:46;;;;;;;13.60;9.82;;;1.30;99.50;;;;;;5079222;28;20196;-62
2022/12/15 13:25:36;;;;;;;15.32;12.02;;;1.20;99.60;;;;;;5077484;28;20205;-62
2022/12/15 13:28:29;;;;;;;21.80;10.73;;;1.20;99.90;;;;;;5076986;28;20190;-62
2022/12/15 13:31:26;;;;;;;14.93;10.80;;;1.40;99.90;;;;;;5076282;28;20243;-62
2022/12/15 13:33:58;;;;;;;13.85;10.20;;;1.50;99.80;;;;;;5077783;28;20213;-61
2022/12/15 13:36:48;;;;;;;15.00;11.48;;;1.70;99.50;;;;;;5079647;28;20193;-61
2022/12/15 13:39:54;;;;;;;14.73;10.48;;;1.70;99.10;;;;;;5078069;28;20218;-62
2022/12/15 13:42:35;;;;;;;16.42;11.30;;;1.60;98.70;;;;;;5077716;28;20629;-62
2022/12/15 13:45:28;;;;;;;15.43;10.80;;;1.40;98.70;;;;;;5078581;28;20273;-62
2022/12/15 13:47:57;;;;;;;14.70;10.93;;;1.30;98.80;;;;;;5079183;28;20181;-64
2022/12/15 13:50:32;;;;;;;16.83;10.90;;;1.20;99.00;;;;;;5077953;28;20224;-62
2022/12/15 13:53:03;;;;;;;15.40;10.88;;;1.10;99.10;;;;;;5079544;28;20212;-61
2022/12/15 13:55:37;;;;;;;12.93;10.63;;;1.00;99.20;;;;;;5081622;28;20239;-61
2022/12/15 13:58:07;;;;;;;13.40;11.65;;;0.90;99.30;;;;;;5079704;28;20190;-62
2022/12/15 14:00:38;;;;;;;17.05;11.77;;;0.80;99.30;;;;;;5078406;28;20221;-62
2022/12/15 14:03:06;;;;;;;13.35;11.38;;;0.80;99.40;;;;;;5077894;28;20193;-61
2022/12/15 14:05:33;;;;;;;20.98;11.75;;;0.70;99.40;;;;;;5077487;28;20688;-61
2022/12/15 14:08:02;;;;;;;13.52;9.55;;;0.70;99.50;;;;;;5078556;28;20205;-62
2022/12/15 14:10:38;;;;;;;15.32;10.45;;;0.60;99.40;;;;;;5077008;28;20230;-62
2022/12/15 14:13:11;;;;;;;14.48;10.18;;;0.60;99.40;;;;;;5077725;28;20210;-62
2022/12/15 14:15:42;;;;;;;15.13;10.35;;;0.60;99.30;;;;;;5076622;28;20185;-62
2022/12/15 14:18:25;;;;;;;17.38;12.05;;;0.50;99.40;;;;;;5077066;28;20195;-61
2022/12/15 14:20:52;;;;;;;15.63;10.23;;;0.50;99.40;;;;;;5076694;28;20612;-62
2022/12/15 14:23:20;;;;;;;14.43;9.93;;;0.40;99.40;;;;;;5076307;28;20746;-61
2022/12/15 14:25:55;;;;;;;13.02;9.95;;;0.40;99.40;;;;;;5075885;28;20573;-62
2022/12/15 14:28:28;;;;;;;11.85;9.65;;;0.40;99.50;;;;;;5075248;28;20684;-61
2022/12/15 14:30:59;;;;;;;14.57;11.40;;;0.30;99.40;;;;;;5075321;28;20771;-60
2022/12/15 14:33:27;;;;;;;13.43;10.35;;;0.20;99.60;;;;;;5075339;28;20188;-62
2022/12/15 14:35:56;;;;;;;17.00;10.10;;;0.20;99.80;;;;;;5075908;28;20200;-61
2022/12/15 14:38:27;;;;;;;18.15;11.13;;;0.20;99.90;;;;;;5075336;28;20204;-60
2022/12/15 14:40:57;;;;;;;14.52;10.60;;;0.10;99.90;;;;;;5075119;28;20320;-61
2022/12/15 14:43:27;;;;;;;18.50;10.35;;;0.10;99.90;;;;;;5076182;28;20202;-63
2022/12/15 14:45:56;;;;;;;14.00;10.70;;;0.00;99.90;;;;;;5076503;28;20201;-62
2022/12/15 14:48:29;;;;;;;16.38;12.13;;;0.00;99.90;;;;;;5075670;28;20201;-62
2022/12/15 14:51:00;;;;;;;13.23;9.07;;;0.00;99.90;;;;;;5075906;28;20217;-61
2022/12/15 14:53:31;;;;;;;17.85;10.88;;;-0.10;99.90;;;;;;5075153;28;20247;-61
2022/12/15 14:56:11;;;;;;;16.73;11.40;;;-0.10;99.90;;;;;;5075673;28;20186;-62
2022/12/15 14:58:40;;;;;;;17.92;10.82;;;-0.20;99.90;;;;;;5075627;28;20223;-62
2022/12/15 15:01:23;;;;;;;16.40;11.60;;;-0.30;99.90;;;;;;5075699;28;20228;-61
2022/12/15 15:03:58;;;;;;;13.88;11.50;;;-0.40;99.90;;;;;;5075167;28;20215;-62
2022/12/15 15:06:33;;;;;;;16.02;11.18;;;-0.40;99.90;;;;;;5075314;28;20188;-61
2022/12/15 15:09:20;;;;;;;20.02;11.70;;;-0.50;99.90;;;;;;5074847;28;20185;-62
2022/12/15 15:11:48;;;;;;;16.38;10.48;;;-0.50;99.90;;;;;;5075034;28;20322;-62
2022/12/15 15:14:20;;;;;;;18.45;12.80;;;-0.60;99.90;;;;;;5075036;28;20233;-62